Time;durP1;ratioP1;P1;durP2;ratioP2;P2;SDS_P1;SDS_P2;PMS_P1;PMS_P2;Temp;Humidity;BMP_temperature;BMP_pressure;BME280_temperature;BME280_humidity;BME280_pressure;Samples;Min_cycle;Max_cycle;Signal;HPM_P1;HPM_P2
2021/07/03 14:33:03;;;;;;;28.37;17.43;;;;;;;35.25;100.00;100052.13;20036276;27;28156952;-67
2021/07/03 14:43:04;;;;;;;21.03;14.57;;;;;;;22.01;100.00;100019.28;21033286;28;20474;-57
2021/07/03 15:03:13;;;;;;;8.77;7.40;;;;;;;21.07;100.00;100058.97;20268412;27;21734421;-58
2021/07/03 15:13:13;;;;;;;13.13;9.20;;;;;;;21.02;100.00;100036.94;20947308;28;20542;-65
2021/07/03 15:33:17;;;;;;;12.37;9.47;;;;;;;21.65;100.00;100029.81;20220182;27;24733671;-59
2021/07/03 15:43:20;;;;;;;10.30;8.90;;;;;;;21.59;100.00;100015.09;21128384;27;20294;-57
2021/07/03 15:53:23;;;;;;;12.10;8.70;;;;;;;21.61;100.00;100002.19;21108266;27;20234;-61
2021/07/03 16:13:34;;;;;;;7.53;6.70;;;;;;;21.67;100.00;100017.75;20251424;27;21999410;-56
2021/07/03 16:23:35;;;;;;;7.77;6.37;;;;;;;21.93;100.00;100031.03;20952979;28;20703;-57
2021/07/03 16:33:35;;;;;;;9.37;6.47;;;;;;;22.43;100.00;100040.59;20958845;28;20221;-63
2021/07/03 16:43:37;;;;;;;8.77;6.43;;;;;;;23.32;97.47;100043.31;20942298;28;20775;-55
2021/07/03 16:53:37;;;;;;;10.77;9.47;;;;;;;23.95;97.80;100055.50;20956851;28;20272;-56
2021/07/03 17:03:38;;;;;;;8.20;7.20;;;;;;;24.92;93.02;100074.16;20936443;28;20244;-56
2021/07/03 17:13:38;;;;;;;8.80;6.70;;;;;;;25.01;94.09;100070.25;21032134;28;20540;-56
2021/07/03 17:23:39;;;;;;;6.70;6.00;;;;;;;25.15;95.32;100063.84;20971440;28;20228;-56
2021/07/03 17:33:39;;;;;;;11.57;9.10;;;;;;;25.98;93.18;100082.00;20982830;28;21051;-55
2021/07/03 17:43:40;;;;;;;11.73;10.53;;;;;;;25.58;88.10;100080.13;20972397;28;20244;-57
2021/07/03 17:53:40;;;;;;;12.20;8.07;;;;;;;25.39;87.45;100082.50;20972072;28;20586;-56
2021/07/03 18:03:41;;;;;;;7.77;6.97;;;;;;;25.46;86.92;100074.38;20977813;28;20229;-57
2021/07/03 18:13:41;;;;;;;10.50;7.90;;;;;;;25.47;84.11;100084.25;20960649;28;20216;-56
2021/07/03 18:23:42;;;;;;;7.43;6.73;;;;;;;24.92;85.56;100069.53;20980517;28;20254;-58
2021/07/03 18:33:44;;;;;;;7.30;6.37;;;;;;;25.05;85.00;100085.22;20956377;28;20231;-58
2021/07/03 18:43:44;;;;;;;8.00;6.00;;;;;;;24.47;85.22;100081.72;20979032;28;20227;-56
2021/07/03 18:53:45;;;;;;;10.40;7.57;;;;;;;24.63;83.18;100073.28;20957856;28;20575;-56
2021/07/03 19:23:48;;;;;;;12.73;11.53;;;;;;;23.63;86.50;100088.63;20468516;27;9380062;-55
2021/07/03 19:33:49;;;;;;;15.23;11.33;;;;;;;23.33;86.58;100094.03;20864149;28;20221;-55
2021/07/03 19:43:49;;;;;;;10.90;9.23;;;;;;;23.33;85.95;100088.56;20860651;28;20316;-55
2021/07/03 19:53:50;;;;;;;14.40;10.87;;;;;;;23.14;86.80;100088.28;20859650;28;20964;-59
2021/07/03 20:03:50;;;;;;;16.77;12.40;;;;;;;23.42;86.02;100096.69;20847297;28;20226;-59
2021/07/03 20:23:59;;;;;;;19.57;13.87;;;;;;;23.53;86.91;100096.25;20684939;28;8263883;-60
2021/07/03 20:33:59;;;;;;;18.83;14.10;;;;;;;23.50;86.07;100102.03;20928634;28;20222;-54
2021/07/03 20:44:00;;;;;;;21.80;14.97;;;;;;;23.75;84.54;100114.38;20960812;28;20317;-54
2021/07/03 20:54:01;;;;;;;21.53;16.30;;;;;;;23.94;84.30;100119.22;20939936;28;20432;-54
2021/07/03 21:14:10;;;;;;;19.43;14.83;;;;;;;24.05;83.24;100099.66;20590756;27;8285003;-54
2021/07/03 21:24:11;;;;;;;23.83;15.73;;;;;;;23.70;84.72;100105.91;20871451;28;20227;-54
2021/07/03 21:34:11;;;;;;;21.70;16.87;;;;;;;23.82;83.82;100109.84;20873794;28;20223;-54
2021/07/03 21:44:12;;;;;;;18.77;15.50;;;;;;;23.82;82.71;100104.38;20861894;28;20220;-58
2021/07/03 21:54:13;;;;;;;22.43;16.80;;;;;;;23.44;85.26;100080.97;20878074;28;20219;-53
2021/07/03 22:04:14;;;;;;;22.50;17.23;;;;;;;23.62;83.57;100087.78;20860198;28;20704;-54
2021/07/03 22:14:14;;;;;;;22.20;17.90;;;;;;;23.83;82.41;100089.72;20958324;28;20226;-56
2021/07/03 22:24:16;;;;;;;22.53;17.30;;;;;;;23.87;81.58;100091.06;20887347;28;20519;-60
2021/07/03 22:34:17;;;;;;;26.70;18.83;;;;;;;23.13;85.79;100087.44;20900276;28;20302;-53
2021/07/03 22:54:30;;;;;;;20.83;17.30;;;;;;;23.33;83.67;100072.25;20591797;27;8285388;-53
2021/07/03 23:04:30;;;;;;;26.23;18.20;;;;;;;22.94;85.91;100063.47;20872456;28;20243;-54
2021/07/03 23:14:30;;;;;;;33.53;21.50;;;;;;;23.10;85.52;100071.47;20863583;28;20693;-53
2021/07/03 23:24:32;;;;;;;29.37;19.70;;;;;;;23.24;83.68;100077.97;20878151;28;20212;-54
2021/07/03 23:34:33;;;;;;;27.20;19.93;;;;;;;23.32;84.36;100069.69;20854100;28;20226;-54
2021/07/03 23:44:33;;;;;;;32.00;20.43;;;;;;;23.46;82.93;100081.63;20876115;28;20232;-54
2021/07/03 23:54:34;;;;;;;34.63;22.08;;;;;;;23.73;82.10;100081.00;20935935;28;20234;-53
